Time;durP1;ratioP1;P1;durP2;ratioP2;P2;SDS_P1;SDS_P2;PMS_P1;PMS_P2;Temp;Humidity;BMP_temperature;BMP_pressure;BME280_temperature;BME280_humidity;BME280_pressure;Samples;Min_cycle;Max_cycle;Signal;HPM_P1;HPM_P2
2022/07/18 00:02:22;;;;;;;3.97;2.90;;;17.20;99.90;;;;;;5072173;28;20127;-68
2022/07/18 00:04:48;;;;;;;5.03;2.95;;;17.20;99.90;;;;;;5073030;28;20131;-67
2022/07/18 00:07:14;;;;;;;5.28;3.38;;;17.10;99.90;;;;;;5071907;28;20065;-68
2022/07/18 00:09:41;;;;;;;6.78;3.30;;;17.10;99.90;;;;;;5073260;28;20045;-67
2022/07/18 00:12:08;;;;;;;4.68;3.45;;;17.00;99.90;;;;;;5073241;28;20049;-68
2022/07/18 00:14:34;;;;;;;5.03;3.08;;;17.00;99.90;;;;;;5071668;28;20040;-67
2022/07/18 00:17:01;;;;;;;5.18;3.63;;;16.90;99.90;;;;;;5071864;28;20074;-67
2022/07/18 00:19:27;;;;;;;4.57;2.90;;;16.90;99.90;;;;;;5072132;28;20063;-68
2022/07/18 00:21:54;;;;;;;4.88;3.20;;;16.90;99.90;;;;;;5072955;28;20127;-69
2022/07/18 00:24:19;;;;;;;4.55;3.53;;;16.90;99.90;;;;;;5073769;28;20083;-67
2022/07/18 00:26:45;;;;;;;4.43;3.50;;;16.80;99.90;;;;;;5075981;28;20126;-67
2022/07/18 00:29:11;;;;;;;5.57;3.83;;;16.80;99.90;;;;;;5077071;28;20051;-66
2022/07/18 00:31:38;;;;;;;4.57;3.22;;;16.80;99.90;;;;;;5076014;28;20142;-67
2022/07/18 00:34:04;;;;;;;6.15;3.65;;;17.10;99.90;;;;;;5076064;28;20048;-67
2022/07/18 00:36:30;;;;;;;7.45;3.45;;;16.70;99.90;;;;;;5076690;28;20091;-68
2022/07/18 00:38:57;;;;;;;5.80;3.78;;;16.70;99.90;;;;;;5076925;28;20083;-67
2022/07/18 00:41:23;;;;;;;4.60;3.63;;;16.70;99.90;;;;;;5076778;28;20048;-67
2022/07/18 00:43:49;;;;;;;4.97;3.88;;;16.70;99.90;;;;;;5076218;28;20052;-67
2022/07/18 00:46:14;;;;;;;5.28;3.95;;;16.60;99.90;;;;;;5076660;28;20044;-67
2022/07/18 00:48:42;;;;;;;5.90;3.65;;;16.60;99.90;;;;;;5075792;28;20133;-67
2022/07/18 00:51:09;;;;;;;5.75;4.10;;;16.60;99.90;;;;;;5075543;28;20056;-68
2022/07/18 00:53:35;;;;;;;5.03;3.92;;;16.60;99.90;;;;;;5076629;28;20077;-66
2022/07/18 00:56:03;;;;;;;5.72;4.10;;;16.60;99.90;;;;;;5076577;28;20045;-66
2022/07/18 00:58:29;;;;;;;5.40;3.67;;;16.60;99.90;;;;;;5076082;28;20529;-67
2022/07/18 01:03:40;;;;;;;8.60;4.35;;;16.60;99.90;;;;;;5076148;28;20052;-68
2022/07/18 01:06:05;;;;;;;5.50;4.18;;;16.50;99.90;;;;;;5076560;28;20071;-67
2022/07/18 01:08:32;;;;;;;6.18;4.03;;;16.50;99.90;;;;;;5075354;28;20396;-67
2022/07/18 01:10:58;;;;;;;6.35;4.13;;;16.50;99.90;;;;;;5076222;28;20048;-67
2022/07/18 01:13:24;;;;;;;6.38;4.30;;;16.50;99.90;;;;;;5074510;28;20052;-67
2022/07/18 01:15:50;;;;;;;6.18;4.18;;;16.40;99.90;;;;;;5075106;28;20036;-67
2022/07/18 01:18:16;;;;;;;5.63;3.90;;;16.40;99.90;;;;;;5075847;28;20056;-68
2022/07/18 01:20:42;;;;;;;6.50;3.90;;;16.50;99.90;;;;;;5075058;28;20040;-66
2022/07/18 01:23:08;;;;;;;5.20;4.03;;;16.40;99.90;;;;;;5074855;28;20042;-67
2022/07/18 01:25:34;;;;;;;6.50;3.60;;;16.40;99.90;;;;;;5074811;28;20040;-69
2022/07/18 01:28:00;;;;;;;5.88;3.80;;;16.40;99.90;;;;;;5074763;28;20495;-67
2022/07/18 01:30:26;;;;;;;5.07;3.88;;;16.40;99.90;;;;;;5074878;28;20119;-66
2022/07/18 01:33:01;;;;;;;6.93;4.10;;;16.30;99.90;;;;;;5075686;28;20046;-68
2022/07/18 01:35:28;;;;;;;7.00;3.63;;;16.30;99.90;;;;;;5075292;28;20047;-68
2022/07/18 01:37:58;;;;;;;6.05;3.95;;;16.30;99.90;;;;;;5076093;28;20045;-68
2022/07/18 01:40:24;;;;;;;6.28;3.80;;;16.30;99.90;;;;;;5074751;28;20373;-68
2022/07/18 01:42:51;;;;;;;6.40;4.32;;;16.30;99.90;;;;;;5075160;28;20045;-69
2022/07/18 01:45:17;;;;;;;6.10;4.07;;;16.20;99.90;;;;;;5075444;28;20093;-68
2022/07/18 01:47:43;;;;;;;6.70;4.55;;;16.30;99.90;;;;;;5074605;28;20065;-68
2022/07/18 01:50:10;;;;;;;5.25;3.25;;;16.30;99.90;;;;;;5075723;28;20045;-67
2022/07/18 01:52:36;;;;;;;7.40;3.95;;;16.20;99.90;;;;;;5075550;28;20102;-67
2022/07/18 01:55:03;;;;;;;5.93;3.42;;;16.20;99.90;;;;;;5075250;28;20099;-68
2022/07/18 01:57:29;;;;;;;5.28;3.60;;;16.20;99.90;;;;;;5075473;28;20056;-67
2022/07/18 01:59:55;;;;;;;6.07;4.13;;;16.20;99.90;;;;;;5075241;28;20458;-67
2022/07/18 02:02:20;;;;;;;5.50;3.72;;;16.10;99.90;;;;;;5075377;28;20131;-68
2022/07/18 02:05:02;;;;;;;8.25;4.00;;;16.10;99.90;;;;;;5075332;28;20051;-67
2022/07/18 02:07:29;;;;;;;6.25;3.78;;;16.10;99.90;;;;;;5074628;28;20089;-67
2022/07/18 02:09:56;;;;;;;6.05;4.20;;;16.10;99.90;;;;;;5075215;28;20416;-67
2022/07/18 02:12:21;;;;;;;8.10;4.35;;;16.10;99.90;;;;;;5075133;28;20041;-67
2022/07/18 02:14:47;;;;;;;6.38;4.25;;;16.10;99.90;;;;;;5074501;28;20071;-68
2022/07/18 02:17:13;;;;;;;7.50;4.00;;;16.10;99.90;;;;;;5075369;28;20106;-67
2022/07/18 02:19:39;;;;;;;6.35;4.45;;;16.10;99.90;;;;;;5074001;28;20055;-67
2022/07/18 02:22:04;;;;;;;6.80;4.07;;;16.10;99.90;;;;;;5074868;28;20044;-67
2022/07/18 02:24:30;;;;;;;7.75;4.40;;;16.10;99.90;;;;;;5073654;28;20040;-67
2022/07/18 02:26:56;;;;;;;6.03;4.28;;;16.00;99.90;;;;;;5073846;28;20542;-68
2022/07/18 02:29:21;;;;;;;6.45;3.95;;;16.00;99.90;;;;;;5073860;28;20143;-67
2022/07/18 02:31:47;;;;;;;6.07;3.80;;;16.00;99.90;;;;;;5073857;28;20369;-67
2022/07/18 02:34:14;;;;;;;5.93;4.20;;;16.00;99.90;;;;;;5073596;28;20045;-67
2022/07/18 02:36:40;;;;;;;6.45;4.15;;;16.00;99.90;;;;;;5074775;28;20457;-67
2022/07/18 02:39:07;;;;;;;6.35;4.10;;;16.00;99.90;;;;;;5073304;28;20511;-67
2022/07/18 02:41:33;;;;;;;6.40;3.83;;;15.90;99.90;;;;;;5074433;28;20078;-67
2022/07/18 02:43:59;;;;;;;5.75;4.25;;;15.90;99.90;;;;;;5074119;28;20048;-67
2022/07/18 02:46:25;;;;;;;7.80;4.40;;;15.90;99.90;;;;;;5074472;28;20048;-67
2022/07/18 02:48:51;;;;;;;8.05;4.63;;;15.90;99.90;;;;;;5073596;28;20067;-67
2022/07/18 02:51:16;;;;;;;6.35;4.28;;;15.90;99.90;;;;;;5073108;28;20044;-67
2022/07/18 02:53:42;;;;;;;6.68;4.35;;;15.90;99.90;;;;;;5074625;28;20117;-67
2022/07/18 02:56:08;;;;;;;6.95;4.75;;;15.90;99.90;;;;;;5074053;28;20131;-68
2022/07/18 02:58:34;;;;;;;6.65;4.40;;;15.90;99.90;;;;;;5073032;28;20064;-68
2022/07/18 03:00:59;;;;;;;6.25;4.07;;;15.90;99.90;;;;;;5073250;28;20037;-67
2022/07/18 03:03:25;;;;;;;5.40;4.00;;;15.90;99.90;;;;;;5056804;28;20084;-68
2022/07/18 03:05:51;;;;;;;7.25;4.47;;;15.90;99.90;;;;;;5072983;28;20511;-67
2022/07/18 03:08:17;;;;;;;7.47;4.60;;;15.90;99.90;;;;;;5074031;28;20083;-67
2022/07/18 03:10:42;;;;;;;7.45;4.53;;;15.90;99.90;;;;;;5073956;28;20110;-67
2022/07/18 03:13:10;;;;;;;6.93;4.38;;;15.80;99.90;;;;;;5073363;28;20257;-67
2022/07/18 03:15:36;;;;;;;6.28;4.53;;;15.80;99.90;;;;;;5073126;28;20052;-67
2022/07/18 03:18:02;;;;;;;6.18;4.35;;;15.80;99.90;;;;;;5072887;28;20519;-67
2022/07/18 03:20:28;;;;;;;8.48;4.78;;;15.80;99.90;;;;;;5072761;28;20083;-67
2022/07/18 03:22:53;;;;;;;6.28;4.55;;;15.80;99.90;;;;;;5072516;28;20166;-67
2022/07/18 03:25:19;;;;;;;5.95;4.82;;;15.80;99.90;;;;;;5073661;28;20048;-68
2022/07/18 03:27:45;;;;;;;6.15;4.45;;;15.70;99.90;;;;;;5074035;28;20464;-68
2022/07/18 03:30:11;;;;;;;6.50;4.35;;;15.70;99.90;;;;;;5073512;28;20055;-68
2022/07/18 03:32:37;;;;;;;8.40;5.03;;;15.70;99.90;;;;;;5055815;28;20052;-68
2022/07/18 03:35:03;;;;;;;9.05;5.32;;;15.70;99.90;;;;;;5055824;28;20055;-68
2022/07/18 03:37:28;;;;;;;6.72;4.85;;;15.70;99.90;;;;;;5073527;28;20130;-68
2022/07/18 03:39:54;;;;;;;6.75;4.97;;;15.70;99.90;;;;;;5072483;28;20052;-67
2022/07/18 03:42:20;;;;;;;7.93;4.80;;;15.70;99.90;;;;;;5073257;28;20083;-68
2022/07/18 03:44:45;;;;;;;7.68;5.00;;;15.70;99.90;;;;;;5073270;28;20469;-68
2022/07/18 03:47:11;;;;;;;6.43;4.63;;;15.70;99.90;;;;;;5073496;28;20404;-68
2022/07/18 03:49:37;;;;;;;8.90;5.13;;;15.70;99.90;;;;;;5072543;28;20447;-68
2022/07/18 03:52:03;;;;;;;7.10;4.90;;;15.80;99.90;;;;;;5072326;28;20040;-68
2022/07/18 03:54:29;;;;;;;6.72;4.70;;;15.80;99.90;;;;;;5073305;28;20060;-67
2022/07/18 03:56:54;;;;;;;8.68;5.00;;;15.80;99.90;;;;;;5071899;28;20055;-67
2022/07/18 03:59:20;;;;;;;10.15;4.97;;;15.80;99.90;;;;;;5073089;28;20496;-67
2022/07/18 04:01:46;;;;;;;7.88;4.78;;;15.80;99.90;;;;;;5072418;28;20464;-67
2022/07/18 04:04:11;;;;;;;6.68;5.05;;;15.90;99.90;;;;;;5073463;28;20044;-67
2022/07/18 04:06:37;;;;;;;6.68;4.65;;;15.80;99.90;;;;;;5073422;28;20135;-67
2022/07/18 04:09:03;;;;;;;8.45;4.57;;;15.90;99.90;;;;;;5073312;28;20044;-67
2022/07/18 04:11:29;;;;;;;7.93;5.13;;;15.80;99.90;;;;;;5072959;28;20164;-67
2022/07/18 04:13:55;;;;;;;6.22;4.40;;;15.80;99.90;;;;;;5072003;28;20049;-67
2022/07/18 04:16:21;;;;;;;7.35;4.65;;;15.80;99.90;;;;;;5073230;28;20074;-67
2022/07/18 04:18:47;;;;;;;7.85;4.80;;;15.80;99.90;;;;;;5071995;28;20123;-67
2022/07/18 04:21:13;;;;;;;7.53;4.70;;;15.90;99.90;;;;;;5073048;28;20037;-67
2022/07/18 04:23:40;;;;;;;6.18;4.53;;;15.90;99.90;;;;;;5072972;28;20056;-68
2022/07/18 04:26:05;;;;;;;6.25;4.28;;;15.90;99.90;;;;;;5072834;28;20055;-68
2022/07/18 04:28:31;;;;;;;6.13;3.88;;;15.90;99.90;;;;;;5073127;28;20036;-68
2022/07/18 04:30:57;;;;;;;5.80;4.57;;;15.90;99.90;;;;;;5073212;28;20057;-68
2022/07/18 04:33:23;;;;;;;7.30;4.57;;;15.90;99.90;;;;;;5072274;28;20130;-68
2022/07/18 04:35:49;;;;;;;7.15;4.20;;;16.00;99.90;;;;;;5071917;28;20051;-68
2022/07/18 04:38:15;;;;;;;7.78;3.88;;;16.00;99.90;;;;;;5072861;28;20048;-68
2022/07/18 04:40:41;;;;;;;6.72;4.05;;;16.00;99.90;;;;;;5072680;28;20048;-69
2022/07/18 04:43:07;;;;;;;7.35;4.15;;;16.10;99.90;;;;;;5072510;28;20049;-69
2022/07/18 04:45:34;;;;;;;7.68;4.50;;;16.10;99.90;;;;;;5073051;28;20063;-69
2022/07/18 04:48:00;;;;;;;6.68;4.38;;;16.20;99.90;;;;;;5071635;28;20408;-69
2022/07/18 04:50:29;;;;;;;9.60;4.32;;;16.20;99.90;;;;;;5072822;28;20041;-68
2022/07/18 04:52:56;;;;;;;7.40;4.10;;;16.20;99.90;;;;;;5072823;28;20037;-69
2022/07/18 04:55:22;;;;;;;6.50;4.00;;;16.30;99.90;;;;;;5072513;28;20053;-69
2022/07/18 04:57:49;;;;;;;8.32;4.50;;;16.30;99.90;;;;;;5073118;28;20063;-69
2022/07/18 05:00:17;;;;;;;5.95;3.75;;;16.40;99.90;;;;;;5072678;28;20056;-69
2022/07/18 05:02:46;;;;;;;4.85;3.72;;;16.50;99.90;;;;;;5072562;28;20070;-69
2022/07/18 05:05:13;;;;;;;7.97;4.00;;;16.50;99.90;;;;;;5072731;28;20563;-69
2022/07/18 05:07:41;;;;;;;6.97;3.75;;;17.20;99.90;;;;;;5071699;28;20538;-70
2022/07/18 05:10:08;;;;;;;8.52;3.78;;;16.60;99.90;;;;;;5072801;28;20049;-70
2022/07/18 05:12:39;;;;;;;5.78;3.85;;;16.60;99.90;;;;;;5076113;28;20370;-69
2022/07/18 05:15:06;;;;;;;5.78;3.53;;;16.60;99.90;;;;;;5075839;28;20060;-70
2022/07/18 05:17:32;;;;;;;5.88;3.67;;;16.70;99.90;;;;;;5076370;28;20052;-70
2022/07/18 05:19:57;;;;;;;7.40;4.68;;;16.70;99.90;;;;;;5076174;28;20044;-70
2022/07/18 05:22:23;;;;;;;6.85;4.10;;;16.80;99.90;;;;;;5076007;28;20048;-70
2022/07/18 05:24:49;;;;;;;8.13;3.55;;;16.80;99.90;;;;;;5075103;28;20044;-70
2022/07/18 05:27:15;;;;;;;8.57;3.58;;;16.80;99.90;;;;;;5075929;28;20083;-70
2022/07/18 05:29:41;;;;;;;6.30;3.63;;;16.80;99.90;;;;;;5075940;28;20060;-70
2022/07/18 05:32:07;;;;;;;7.90;3.45;;;16.90;99.90;;;;;;5075866;28;20089;-69
2022/07/18 05:34:33;;;;;;;5.60;3.90;;;16.90;99.90;;;;;;5075867;28;20055;-70
2022/07/18 05:36:59;;;;;;;8.20;4.18;;;16.90;99.90;;;;;;5075512;28;20052;-70
2022/07/18 05:39:25;;;;;;;6.85;3.75;;;17.00;99.90;;;;;;5074899;28;20368;-68
2022/07/18 05:41:52;;;;;;;4.25;3.50;;;17.00;99.90;;;;;;5058040;28;20089;-69
2022/07/18 05:44:19;;;;;;;5.70;4.13;;;17.10;99.90;;;;;;5074452;28;20564;-69
2022/07/18 05:46:46;;;;;;;7.38;3.60;;;17.10;99.90;;;;;;5075620;28;20098;-70
2022/07/18 05:49:12;;;;;;;5.32;3.50;;;;;;;;;;5075581;28;20128;-69
2022/07/18 05:51:38;;;;;;;6.97;3.58;;;17.20;99.90;;;;;;5074505;28;20087;-69
2022/07/18 05:54:04;;;;;;;6.13;3.53;;;17.20;99.90;;;;;;5074474;28;20137;-69
2022/07/18 05:56:30;;;;;;;5.38;3.92;;;17.20;99.90;;;;;;5074599;28;20504;-69
2022/07/18 05:58:55;;;;;;;6.03;3.40;;;17.30;99.90;;;;;;5074512;28;20057;-69
2022/07/18 06:01:21;;;;;;;4.32;3.05;;;17.30;99.90;;;;;;5075488;28;20415;-69
2022/07/18 06:03:47;;;;;;;4.28;2.85;;;17.30;99.90;;;;;;5074130;28;20047;-68
2022/07/18 06:06:14;;;;;;;5.10;2.78;;;17.40;99.90;;;;;;5075110;28;20090;-69
2022/07/18 06:08:40;;;;;;;5.22;2.88;;;17.40;99.90;;;;;;5074214;28;20040;-68
2022/07/18 06:11:08;;;;;;;5.45;2.70;;;17.40;99.90;;;;;;5075296;28;20123;-69
2022/07/18 06:13:36;;;;;;;3.75;2.33;;;17.50;99.90;;;;;;5074670;28;20128;-69
2022/07/18 06:16:03;;;;;;;2.70;2.15;;;17.50;99.90;;;;;;5075023;28;20044;-69
2022/07/18 06:18:28;;;;;;;5.35;2.60;;;17.60;99.90;;;;;;5073947;28;20565;-70
2022/07/18 06:20:54;;;;;;;3.72;2.45;;;17.70;99.90;;;;;;5073882;28;20052;-69
2022/07/18 06:23:20;;;;;;;6.25;2.80;;;17.70;99.90;;;;;;5073659;28;20374;-70
2022/07/18 06:25:45;;;;;;;3.92;2.00;;;17.70;99.90;;;;;;5073758;28;20048;-70
2022/07/18 06:28:11;;;;;;;4.72;2.45;;;17.80;99.90;;;;;;5073777;28;20133;-70
2022/07/18 06:30:39;;;;;;;4.00;2.30;;;17.90;99.90;;;;;;5074683;28;20048;-70
2022/07/18 06:33:07;;;;;;;6.18;2.08;;;17.90;99.90;;;;;;5074493;28;20076;-70
2022/07/18 06:35:33;;;;;;;5.32;2.15;;;17.90;99.90;;;;;;5074600;28;20059;-70
2022/07/18 06:37:59;;;;;;;3.17;1.70;;;18.00;99.90;;;;;;5074689;28;20056;-69
2022/07/18 06:40:25;;;;;;;4.45;2.00;;;18.00;99.90;;;;;;5074580;28;20052;-69
2022/07/18 06:42:53;;;;;;;3.90;1.73;;;18.10;99.90;;;;;;5074393;28;20427;-70
2022/07/18 06:45:19;;;;;;;5.20;1.88;;;18.10;99.90;;;;;;5073919;28;20131;-70
2022/07/18 06:47:46;;;;;;;3.40;1.60;;;18.10;99.90;;;;;;5074154;28;20127;-71
2022/07/18 06:50:13;;;;;;;4.25;1.50;;;18.20;99.90;;;;;;5074720;28;20052;-70
2022/07/18 06:52:40;;;;;;;4.20;1.30;;;18.20;99.90;;;;;;5074163;28;20500;-70
2022/07/18 06:55:07;;;;;;;2.63;1.30;;;18.30;99.90;;;;;;5073278;28;20064;-70
2022/07/18 06:57:33;;;;;;;4.38;1.60;;;18.30;99.90;;;;;;5074423;28;20455;-71
2022/07/18 06:59:59;;;;;;;4.28;1.70;;;18.40;99.90;;;;;;5074013;28;20053;-69
2022/07/18 07:02:25;;;;;;;5.25;1.45;;;18.40;99.90;;;;;;5072666;28;20053;-71
2022/07/18 07:04:51;;;;;;;3.00;1.45;;;18.50;99.90;;;;;;5074134;28;20080;-71
2022/07/18 07:07:16;;;;;;;6.00;1.70;;;18.60;99.90;;;;;;5074134;28;20091;-70
2022/07/18 07:09:42;;;;;;;2.60;1.35;;;18.70;99.90;;;;;;5074003;28;20055;-71
2022/07/18 07:12:09;;;;;;;3.38;1.40;;;18.80;99.90;;;;;;5073876;28;20175;-71
2022/07/18 07:14:36;;;;;;;5.38;1.60;;;18.90;99.90;;;;;;5073416;28;20131;-69
2022/07/18 07:17:02;;;;;;;4.22;1.40;;;19.00;99.90;;;;;;5072429;28;20485;-70
2022/07/18 07:19:27;;;;;;;4.05;1.38;;;19.00;99.90;;;;;;5073845;28;20124;-70
2022/07/18 07:21:53;;;;;;;2.75;1.60;;;19.10;99.90;;;;;;5073689;28;20495;-69
2022/07/18 07:24:19;;;;;;;2.55;1.20;;;19.20;99.90;;;;;;5073863;28;20119;-69
2022/07/18 07:26:44;;;;;;;3.95;1.20;;;19.20;99.90;;;;;;5073824;28;20598;-70
2022/07/18 07:29:10;;;;;;;2.40;1.42;;;19.30;99.90;;;;;;5073793;28;20045;-70
2022/07/18 07:31:36;;;;;;;2.15;1.25;;;19.40;99.90;;;;;;5055853;28;20533;-70
2022/07/18 07:34:02;;;;;;;4.00;1.40;;;19.40;99.90;;;;;;5073700;28;20067;-69
2022/07/18 07:36:27;;;;;;;3.25;1.30;;;19.50;99.90;;;;;;5073773;28;20106;-69
2022/07/18 07:38:54;;;;;;;1.85;1.08;;;19.60;99.90;;;;;;5072504;28;20520;-70
2022/07/18 07:41:19;;;;;;;3.33;1.20;;;19.60;99.90;;;;;;5073514;28;20084;-71
2022/07/18 07:43:45;;;;;;;2.00;1.20;;;19.70;99.90;;;;;;5073147;28;20080;-70
2022/07/18 07:46:11;;;;;;;3.65;1.25;;;19.70;99.90;;;;;;5072178;28;20399;-70
2022/07/18 07:48:38;;;;;;;2.97;1.10;;;19.80;99.90;;;;;;5073713;28;20052;-71
2022/07/18 07:51:04;;;;;;;3.17;1.10;;;19.90;99.90;;;;;;5073560;28;20048;-71
2022/07/18 07:53:30;;;;;;;4.05;1.30;;;19.90;99.90;;;;;;5073574;28;20083;-70
2022/07/18 07:55:56;;;;;;;2.88;1.20;;;20.00;99.90;;;;;;5072267;28;20044;-73
2022/07/18 07:58:22;;;;;;;3.33;1.27;;;20.10;99.90;;;;;;5072242;28;20389;-72
2022/07/18 08:00:48;;;;;;;3.03;1.40;;;20.20;99.90;;;;;;5072346;28;20114;-70
2022/07/18 08:03:14;;;;;;;2.35;1.17;;;20.30;99.90;;;;;;5072173;28;20040;-70
2022/07/18 08:05:49;;;;;;;2.85;1.15;;;20.40;99.90;;;;;;5073492;28;20136;-71
2022/07/18 08:08:15;;;;;;;2.80;1.10;;;20.50;99.90;;;;;;5072250;28;20052;-70
2022/07/18 08:10:42;;;;;;;3.45;1.20;;;20.60;99.90;;;;;;5073430;28;20044;-71
2022/07/18 08:13:08;;;;;;;3.35;0.90;;;20.70;99.90;;;;;;5069730;28;20044;-71
2022/07/18 08:15:33;;;;;;;1.60;0.80;;;20.80;99.90;;;;;;5072689;28;20056;-71
2022/07/18 08:17:59;;;;;;;3.20;0.90;;;21.00;99.90;;;;;;5084173;28;20056;-72
2022/07/18 08:20:25;;;;;;;2.50;1.10;;;21.10;99.90;;;;;;5072583;28;20041;-71
2022/07/18 08:23:05;;;;;;;2.00;0.70;;;21.20;99.90;;;;;;5072580;28;20060;-71
2022/07/18 08:25:33;;;;;;;1.35;0.80;;;21.30;99.90;;;;;;5069871;28;20060;-72
2022/07/18 08:28:02;;;;;;;2.42;0.80;;;21.40;99.90;;;;;;5071727;28;20127;-71
2022/07/18 08:30:29;;;;;;;3.88;0.82;;;21.40;99.90;;;;;;5070355;28;20044;-71
2022/07/18 08:32:56;;;;;;;1.35;0.60;;;21.40;99.90;;;;;;5072710;28;20045;-71
2022/07/18 08:35:22;;;;;;;2.20;0.70;;;21.50;99.90;;;;;;5072741;28;20098;-72
2022/07/18 08:37:48;;;;;;;2.05;0.82;;;21.50;99.90;;;;;;5071837;28;20048;-71
2022/07/18 08:40:14;;;;;;;1.17;0.63;;;21.50;99.90;;;;;;5071519;28;20044;-71
2022/07/18 08:42:40;;;;;;;1.33;0.70;;;21.50;99.90;;;;;;5072563;28;20166;-72
2022/07/18 08:45:06;;;;;;;1.95;0.63;;;21.60;99.90;;;;;;5072346;28;20098;-71
2022/07/18 08:47:33;;;;;;;2.97;1.00;;;21.70;99.90;;;;;;5075147;28;20128;-71
2022/07/18 08:50:01;;;;;;;1.58;0.68;;;21.80;99.90;;;;;;5076309;28;20091;-71
2022/07/18 08:52:28;;;;;;;2.85;0.77;;;21.80;99.90;;;;;;5073817;28;20087;-71
2022/07/18 08:54:54;;;;;;;3.75;0.70;;;22.00;99.90;;;;;;5076344;28;20079;-72
2022/07/18 08:57:21;;;;;;;4.55;0.80;;;22.00;99.90;;;;;;5076033;28;20127;-71
2022/07/18 08:59:50;;;;;;;1.45;0.70;;;22.10;99.90;;;;;;5074082;28;20110;-72
2022/07/18 09:02:15;;;;;;;2.17;0.70;;;22.20;99.90;;;;;;5058550;28;20481;-72
2022/07/18 09:04:44;;;;;;;2.53;0.63;;;22.30;99.90;;;;;;5074841;28;20048;-72
2022/07/18 09:07:22;;;;;;;1.65;0.55;;;22.40;99.90;;;;;;5074028;28;20051;-70
2022/07/18 09:09:59;;;;;;;3.38;0.90;;;22.40;99.90;;;;;;5073631;28;20067;-71
2022/07/18 09:12:27;;;;;;;3.42;0.70;;;22.50;99.90;;;;;;5076081;28;20035;-71
2022/07/18 09:14:53;;;;;;;2.45;0.82;;;22.50;99.90;;;;;;5075664;28;20041;-71
2022/07/18 09:17:28;;;;;;;1.95;0.60;;;22.50;99.90;;;;;;5074908;28;20049;-71
2022/07/18 09:19:59;;;;;;;1.83;0.80;;;22.50;99.90;;;;;;5073088;28;20078;-72
2022/07/18 09:22:27;;;;;;;2.05;0.50;;;22.50;99.90;;;;;;5069613;28;20455;-71
2022/07/18 09:24:57;;;;;;;2.20;0.60;;;22.60;99.90;;;;;;5059708;28;20128;-74
2022/07/18 09:27:31;;;;;;;2.67;0.70;;;22.60;99.90;;;;;;5047159;28;20476;-75
2022/07/18 09:30:24;;;;;;;2.03;0.60;;;22.60;99.90;;;;;;5066327;28;20037;-72
2022/07/18 09:33:11;;;;;;;3.03;0.40;;;22.70;99.90;;;;;;5068158;28;20101;-73
2022/07/18 09:35:45;;;;;;;1.42;0.70;;;22.70;99.90;;;;;;5065640;28;20365;-72
2022/07/18 09:38:14;;;;;;;1.67;0.65;;;22.80;99.90;;;;;;5070971;28;20356;-72
2022/07/18 09:40:47;;;;;;;1.70;0.60;;;22.80;99.90;;;;;;5067927;28;20515;-73
2022/07/18 09:43:15;;;;;;;1.73;0.55;;;22.80;99.90;;;;;;5066366;28;20131;-72
2022/07/18 09:45:43;;;;;;;2.50;0.52;;;22.90;99.90;;;;;;5068527;28;20186;-75
2022/07/18 09:48:19;;;;;;;2.25;0.70;;;22.90;99.90;;;;;;5069998;28;20048;-72
2022/07/18 09:51:01;;;;;;;2.80;0.50;;;22.90;99.90;;;;;;5053293;28;20381;-72
2022/07/18 09:53:30;;;;;;;2.70;0.63;;;23.00;99.90;;;;;;5068812;28;20495;-71
2022/07/18 09:55:58;;;;;;;1.75;0.60;;;23.00;99.80;;;;;;5071542;28;20078;-72
2022/07/18 09:58:28;;;;;;;2.20;0.70;;;23.10;99.90;;;;;;5067506;28;20071;-72
2022/07/18 10:00:56;;;;;;;2.40;0.65;;;23.10;99.80;;;;;;5071200;28;20051;-78
2022/07/18 10:03:22;;;;;;;2.38;0.65;;;23.20;99.30;;;;;;5070945;28;20487;-72
2022/07/18 10:05:51;;;;;;;2.45;0.68;;;23.30;99.20;;;;;;5068070;28;20044;-72
2022/07/18 10:08:20;;;;;;;2.17;0.60;;;23.30;98.80;;;;;;5070064;28;20537;-75
2022/07/18 10:10:51;;;;;;;3.45;0.63;;;23.30;98.50;;;;;;5069974;28;20044;-70
2022/07/18 10:13:19;;;;;;;2.80;0.70;;;23.40;98.40;;;;;;5069859;28;20044;-80
2022/07/18 10:15:47;;;;;;;1.08;0.50;;;23.50;98.10;;;;;;5069032;28;20083;-72
2022/07/18 10:18:15;;;;;;;2.47;0.77;;;23.50;98.20;;;;;;5069853;28;20047;-73
2022/07/18 10:20:59;;;;;;;3.45;0.60;;;23.60;97.50;;;;;;5070046;28;20049;-73
2022/07/18 10:23:42;;;;;;;2.35;0.70;;;23.70;98.00;;;;;;5070313;28;20067;-71
2022/07/18 10:26:12;;;;;;;2.80;0.73;;;23.70;97.30;;;;;;5068571;28;20094;-72
2022/07/18 10:31:28;;;;;;;2.92;0.70;;;23.80;96.10;;;;;;5068977;28;20414;-73
2022/07/18 10:34:09;;;;;;;1.67;0.60;;;23.80;95.90;;;;;;5067570;28;20052;-73
2022/07/18 10:36:51;;;;;;;2.42;0.80;;;23.90;96.00;;;;;;5069974;28;20052;-75
2022/07/18 10:39:31;;;;;;;4.03;0.73;;;23.90;95.00;;;;;;5066239;28;20171;-72
2022/07/18 10:42:03;;;;;;;3.15;0.70;;;24.00;95.30;;;;;;5068670;28;20443;-75
2022/07/18 10:44:28;;;;;;;2.05;0.60;;;24.10;94.50;;;;;;5068846;28;20182;-73
2022/07/18 10:47:08;;;;;;;1.55;0.80;;;24.20;94.50;;;;;;5070443;28;20524;-72
2022/07/18 10:50:04;;;;;;;2.53;0.80;;;24.20;94.00;;;;;;5069165;28;20049;-73
2022/07/18 10:52:30;;;;;;;1.85;0.60;;;24.30;94.40;;;;;;5054896;28;20101;-71
2022/07/18 10:55:04;;;;;;;2.10;0.90;;;24.40;93.10;;;;;;5069868;28;20048;-73
2022/07/18 10:58:05;;;;;;;1.85;0.77;;;24.40;93.00;;;;;;5069588;28;20149;-67
2022/07/18 11:00:36;;;;;;;1.77;0.70;;;24.50;92.40;;;;;;5069285;28;20097;-68
2022/07/18 11:03:13;;;;;;;2.92;0.80;;;24.60;91.80;;;;;;5069093;28;20453;-67
2022/07/18 11:05:51;;;;;;;1.48;0.80;;;24.70;92.00;;;;;;5069289;28;20049;-70
2022/07/18 11:08:18;;;;;;;1.70;0.70;;;24.80;91.00;;;;;;5068396;28;20262;-71
2022/07/18 11:10:45;;;;;;;2.15;0.90;;;24.80;90.20;;;;;;5069110;28;20044;-72
2022/07/18 11:13:28;;;;;;;3.78;1.10;;;24.80;90.50;;;;;;5069520;28;20046;-70
2022/07/18 11:15:56;;;;;;;3.72;0.80;;;24.90;91.20;;;;;;5068136;28;20056;-68
2022/07/18 11:18:22;;;;;;;2.22;0.93;;;25.00;90.60;;;;;;5069806;28;20404;-69
2022/07/18 11:20:48;;;;;;;3.40;0.80;;;25.00;90.60;;;;;;5066720;28;20499;-68
2022/07/18 11:23:22;;;;;;;2.38;0.90;;;25.10;90.40;;;;;;5067181;28;20593;-68
2022/07/18 11:25:50;;;;;;;2.33;0.90;;;25.10;90.10;;;;;;5069088;28;20055;-68
2022/07/18 11:28:17;;;;;;;1.70;1.00;;;25.20;89.70;;;;;;5069240;28;20044;-68
2022/07/18 11:30:43;;;;;;;1.48;1.00;;;25.20;88.50;;;;;;5072055;28;20243;-68
2022/07/18 11:33:27;;;;;;;4.82;0.98;;;25.30;88.20;;;;;;5072395;28;20048;-67
2022/07/18 11:36:12;;;;;;;2.95;0.95;;;25.30;87.70;;;;;;5071185;28;20119;-68
2022/07/18 11:38:47;;;;;;;1.40;0.93;;;25.40;87.50;;;;;;5070011;28;20071;-67
2022/07/18 11:41:13;;;;;;;2.65;1.10;;;25.50;84.70;;;;;;5072444;28;20404;-67
2022/07/18 11:43:39;;;;;;;3.65;1.20;;;25.60;82.90;;;;;;5071468;28;20085;-69
2022/07/18 11:46:10;;;;;;;2.05;1.33;;;25.60;80.70;;;;;;5069941;28;20045;-68
2022/07/18 11:48:37;;;;;;;3.53;1.53;;;25.60;79.80;;;;;;5072575;28;20040;-68
2022/07/18 11:51:12;;;;;;;4.47;1.40;;;25.80;77.40;;;;;;5072301;28;20047;-68
2022/07/18 11:53:45;;;;;;;2.28;1.35;;;25.80;75.80;;;;;;5069742;28;20044;-68
2022/07/18 11:56:11;;;;;;;3.40;1.60;;;25.90;77.40;;;;;;5071458;28;20046;-68
2022/07/18 11:58:38;;;;;;;3.22;1.60;;;26.00;75.30;;;;;;5071975;28;20056;-68
2022/07/18 12:01:05;;;;;;;3.95;1.70;;;26.00;75.40;;;;;;5071296;28;20388;-68
2022/07/18 12:03:37;;;;;;;4.60;1.80;;;26.10;74.40;;;;;;5072395;28;20047;-67
2022/07/18 12:06:18;;;;;;;2.65;1.63;;;26.10;73.40;;;;;;5052613;28;20500;-67
2022/07/18 12:08:46;;;;;;;3.83;1.48;;;26.10;75.20;;;;;;5070604;28;20392;-67
2022/07/18 12:11:12;;;;;;;3.10;1.23;;;26.10;72.90;;;;;;5071813;28;20049;-67
2022/07/18 12:13:57;;;;;;;2.88;1.80;;;26.10;71.50;;;;;;5071998;28;20049;-68
2022/07/18 12:16:38;;;;;;;1.85;1.33;;;26.20;72.10;;;;;;5068554;28;20125;-67
2022/07/18 12:19:24;;;;;;;3.05;1.70;;;26.20;72.30;;;;;;5069729;28;20040;-67
2022/07/18 12:22:08;;;;;;;3.35;1.67;;;26.20;73.40;;;;;;5075525;28;20045;-66
2022/07/18 12:24:52;;;;;;;3.35;1.70;;;26.30;67.40;;;;;;5083151;28;20041;-68
2022/07/18 12:27:21;;;;;;;3.58;1.67;;;26.40;69.50;;;;;;5072271;28;20033;-67
2022/07/18 12:30:04;;;;;;;4.00;1.60;;;26.40;69.00;;;;;;5058629;28;20459;-68
2022/07/18 12:32:47;;;;;;;2.55;1.95;;;26.50;70.10;;;;;;5074196;28;20049;-68
2022/07/18 12:35:15;;;;;;;3.40;1.63;;;26.70;70.30;;;;;;5075521;28;20435;-68
2022/07/18 12:37:50;;;;;;;2.75;1.88;;;26.70;69.30;;;;;;5075910;28;20044;-68
2022/07/18 12:40:16;;;;;;;2.92;1.67;;;26.80;69.00;;;;;;5075595;28;20052;-68
2022/07/18 12:42:42;;;;;;;4.20;1.88;;;26.80;67.30;;;;;;5074776;28;20044;-68
2022/07/18 12:45:10;;;;;;;3.38;1.90;;;26.90;67.30;;;;;;5074602;28;20124;-67
2022/07/18 12:47:36;;;;;;;4.93;3.08;;;26.90;66.60;;;;;;5075908;28;20389;-67
2022/07/18 12:50:03;;;;;;;3.25;2.00;;;26.90;66.30;;;;;;5075871;28;20086;-68
2022/07/18 12:52:29;;;;;;;5.20;2.53;;;26.90;65.70;;;;;;5075803;28;20036;-68
2022/07/18 12:54:55;;;;;;;2.80;1.70;;;27.00;65.80;;;;;;5075240;28;20511;-69
2022/07/18 12:57:21;;;;;;;2.40;1.50;;;27.00;64.10;;;;;;5074425;28;20111;-68
2022/07/18 12:59:50;;;;;;;3.42;1.90;;;27.20;65.80;;;;;;5075915;28;20067;-68